createdAt,value
2018-09-06T00:00:26.559Z,7.80
2018-09-06T00:01:26.733Z,8.90
2018-09-06T00:02:26.913Z,7.80
2018-09-06T00:03:27.094Z,9.20
2018-09-06T00:04:27.276Z,7.90
2018-09-06T00:05:27.460Z,8.20
2018-09-06T00:06:27.637Z,8.70
2018-09-06T00:07:27.808Z,8.50
2018-09-06T00:08:27.986Z,8.20
2018-09-06T00:09:28.177Z,8.60
2018-09-06T00:10:28.350Z,8.60
2018-09-06T00:11:28.534Z,8.00
2018-09-06T00:12:28.714Z,9.60
2018-09-06T00:13:28.891Z,9.70
2018-09-06T00:14:29.066Z,8.20
2018-09-06T00:15:29.251Z,7.70
2018-09-06T00:16:29.432Z,9.50
2018-09-06T00:17:29.607Z,8.10
2018-09-06T00:18:29.785Z,8.40
2018-09-06T00:19:29.969Z,8.90
2018-09-06T00:20:30.152Z,8.10
2018-09-06T00:21:30.322Z,9.10
2018-09-06T00:22:30.497Z,8.50
2018-09-06T00:23:30.683Z,10.50
2018-09-06T00:24:30.857Z,8.40
2018-09-06T00:25:31.043Z,8.80
2018-09-06T00:26:31.224Z,8.00
2018-09-06T00:27:31.403Z,8.00
2018-09-06T00:28:31.585Z,8.80
2018-09-06T00:29:31.764Z,8.10
2018-09-06T00:30:31.949Z,8.30
2018-09-06T00:31:32.132Z,8.30
2018-09-06T00:32:32.302Z,9.40
2018-09-06T00:33:32.482Z,8.50
2018-09-06T00:34:32.665Z,8.30
2018-09-06T00:35:32.843Z,8.30
2018-09-06T00:36:33.021Z,8.00
2018-09-06T00:37:33.197Z,9.30
2018-09-06T00:38:33.372Z,9.30
2018-09-06T00:39:33.549Z,9.50
2018-09-06T00:40:33.733Z,9.60
2018-09-06T00:41:33.905Z,8.80
2018-09-06T00:42:34.099Z,8.30
2018-09-06T00:43:34.270Z,9.20
2018-09-06T00:44:34.441Z,9.40
2018-09-06T00:45:34.622Z,9.60
2018-09-06T00:46:34.804Z,8.80
2018-09-06T00:47:34.979Z,9.20
2018-09-06T00:48:35.154Z,10.90
2018-09-06T00:49:35.327Z,10.10
2018-09-06T00:50:35.500Z,9.00
2018-09-06T00:51:35.680Z,8.70
2018-09-06T00:52:35.864Z,8.70
2018-09-06T00:53:36.043Z,9.20
2018-09-06T00:54:36.215Z,8.70
2018-09-06T00:55:36.396Z,9.70
2018-09-06T00:56:36.567Z,9.70
2018-09-06T00:57:36.746Z,9.50
2018-09-06T00:58:36.911Z,8.40
2018-09-06T00:59:37.095Z,8.70
2018-09-06T01:00:37.272Z,9.30
2018-09-06T01:01:37.446Z,8.90
2018-09-06T01:02:37.624Z,9.10
2018-09-06T01:03:37.803Z,8.30
2018-09-06T01:04:37.980Z,8.80
2018-09-06T01:05:38.153Z,8.60
2018-09-06T01:06:38.329Z,9.30
2018-09-06T01:07:38.504Z,9.50
2018-09-06T01:08:38.681Z,9.10
2018-09-06T01:09:38.854Z,9.90
2018-09-06T01:10:39.034Z,9.50
2018-09-06T01:11:39.211Z,9.20
2018-09-06T01:12:39.388Z,9.40
2018-09-06T01:13:39.559Z,9.70
2018-09-06T01:14:39.737Z,8.80
2018-09-06T01:15:39.909Z,9.40
2018-09-06T01:16:40.095Z,8.80
2018-09-06T01:17:40.266Z,9.00
2018-09-06T01:18:40.439Z,8.70
2018-09-06T01:19:40.616Z,8.90
2018-09-06T01:20:40.789Z,8.90
2018-09-06T01:21:40.959Z,9.00
2018-09-06T01:22:41.134Z,8.90
2018-09-06T01:23:41.311Z,9.70
2018-09-06T01:24:41.488Z,9.30
2018-09-06T01:25:41.665Z,9.10
2018-09-06T01:26:41.842Z,8.60
2018-09-06T01:27:42.017Z,8.40
2018-09-06T01:28:42.202Z,9.80
2018-09-06T01:29:42.371Z,8.50
2018-09-06T01:30:42.545Z,9.10
2018-09-06T01:31:42.723Z,8.70
2018-09-06T01:32:42.902Z,8.40
2018-09-06T01:33:43.077Z,8.70
2018-09-06T01:34:43.257Z,8.40
2018-09-06T01:35:43.425Z,8.80
2018-09-06T01:36:43.603Z,8.90
2018-09-06T01:37:43.776Z,9.10
2018-09-06T01:38:43.949Z,10.50
2018-09-06T01:39:44.124Z,9.00
2018-09-06T01:40:44.299Z,9.40
2018-09-06T01:41:44.474Z,9.20
2018-09-06T01:42:44.647Z,9.30
2018-09-06T01:43:44.823Z,9.60
2018-09-06T01:44:44.994Z,9.00
2018-09-06T01:45:45.171Z,10.20
2018-09-06T01:46:45.343Z,8.70
2018-09-06T01:47:45.520Z,9.00
2018-09-06T01:48:45.696Z,9.30
2018-09-06T01:49:45.869Z,9.30
2018-09-06T01:50:46.048Z,10.00
2018-09-06T01:51:46.227Z,9.40
2018-09-06T01:52:46.407Z,9.30
2018-09-06T01:53:46.579Z,9.00
2018-09-06T01:54:46.751Z,9.20
2018-09-06T01:55:46.931Z,9.90
2018-09-06T01:56:47.102Z,9.30
2018-09-06T01:57:47.276Z,9.20
2018-09-06T01:58:47.452Z,9.00
2018-09-06T01:59:47.639Z,8.90
2018-09-06T02:00:47.805Z,9.20
2018-09-06T02:01:47.986Z,9.10
2018-09-06T02:02:48.158Z,9.00
2018-09-06T02:03:48.337Z,9.00
2018-09-06T02:04:48.518Z,8.60
2018-09-06T02:05:48.699Z,9.70
2018-09-06T02:06:48.874Z,9.00
2018-09-06T02:07:49.041Z,9.30
2018-09-06T02:08:49.211Z,10.10
2018-09-06T02:09:49.398Z,9.20
2018-09-06T02:10:49.571Z,9.80
2018-09-06T02:11:49.744Z,8.60
2018-09-06T02:12:49.921Z,9.50
2018-09-06T02:13:50.098Z,9.60
2018-09-06T02:14:50.271Z,9.50
2018-09-06T02:15:50.448Z,9.00
2018-09-06T02:16:50.624Z,9.10
2018-09-06T02:17:50.800Z,10.40
2018-09-06T02:18:50.976Z,9.50
2018-09-06T02:19:51.148Z,9.00
2018-09-06T02:20:51.364Z,9.60
2018-09-06T02:21:51.498Z,8.80
2018-09-06T02:22:51.670Z,9.00
2018-09-06T02:23:51.848Z,9.40
2018-09-06T02:24:52.043Z,8.90
2018-09-06T02:25:52.225Z,9.40
2018-09-06T02:26:52.400Z,9.70
2018-09-06T02:27:52.583Z,8.80
2018-09-06T02:28:52.756Z,8.60
2018-09-06T02:29:52.935Z,9.10
2018-09-06T02:30:53.111Z,9.50
2018-09-06T02:31:53.285Z,9.80
2018-09-06T02:32:53.465Z,9.20
2018-09-06T02:33:53.637Z,9.20
2018-09-06T02:34:53.804Z,9.60
2018-09-06T02:35:53.986Z,8.90
2018-09-06T02:36:54.157Z,8.90
2018-09-06T02:37:54.333Z,9.10
2018-09-06T02:38:54.509Z,10.60
2018-09-06T02:39:54.685Z,9.80
2018-09-06T02:40:54.849Z,9.70
2018-09-06T02:41:55.024Z,9.80
2018-09-06T02:42:55.195Z,9.40
2018-09-06T02:43:55.372Z,10.20
2018-09-06T02:44:55.549Z,9.20
2018-09-06T02:45:55.729Z,9.70
2018-09-06T02:46:55.905Z,10.50
2018-09-06T02:47:56.077Z,10.20
2018-09-06T02:48:56.248Z,9.80
2018-09-06T02:49:56.425Z,10.00
2018-09-06T02:50:56.597Z,10.40
2018-09-06T02:51:56.770Z,10.60
2018-09-06T02:52:56.939Z,10.90
2018-09-06T02:53:57.167Z,9.90
2018-09-06T02:54:57.307Z,10.40
2018-09-06T02:55:57.475Z,9.60
2018-09-06T02:56:57.648Z,10.10
2018-09-06T02:57:57.819Z,10.70
2018-09-06T02:58:57.989Z,9.80
2018-09-06T02:59:58.177Z,11.10
2018-09-06T03:00:58.353Z,10.30
2018-09-06T03:01:58.533Z,10.00
2018-09-06T03:02:58.708Z,9.90
2018-09-06T03:03:58.882Z,10.20
2018-09-06T03:04:59.057Z,9.90
2018-09-06T03:05:59.226Z,9.30
2018-09-06T03:06:59.402Z,9.90
2018-09-06T03:07:59.577Z,11.00
2018-09-06T03:08:59.748Z,10.00
2018-09-06T03:09:59.921Z,9.80
2018-09-06T03:11:00.095Z,10.30
2018-09-06T03:12:00.273Z,12.00
2018-09-06T03:13:00.454Z,9.60
2018-09-06T03:14:00.636Z,9.90
2018-09-06T03:15:00.807Z,10.50
2018-09-06T03:16:00.983Z,10.10
2018-09-06T03:17:01.155Z,11.60
2018-09-06T03:18:01.331Z,10.10
2018-09-06T03:19:01.510Z,11.10
2018-09-06T03:20:01.690Z,10.20
2018-09-06T03:21:01.865Z,10.30
2018-09-06T03:22:02.046Z,9.60
2018-09-06T03:23:02.216Z,10.70
2018-09-06T03:24:02.390Z,9.70
2018-09-06T03:25:02.567Z,11.10
2018-09-06T03:26:02.747Z,10.30
2018-09-06T03:27:02.925Z,10.30
2018-09-06T03:28:03.095Z,10.20
2018-09-06T03:29:03.268Z,10.00
2018-09-06T03:30:03.445Z,9.50
2018-09-06T03:31:03.634Z,10.10
2018-09-06T03:32:03.808Z,9.90
2018-09-06T03:33:03.988Z,10.50
2018-09-06T03:34:04.158Z,9.50
2018-09-06T03:35:04.333Z,9.90
2018-09-06T03:36:04.662Z,9.60
2018-09-06T03:37:04.687Z,9.80
2018-09-06T03:38:04.858Z,10.20
2018-09-06T03:39:05.106Z,10.20
2018-09-06T03:40:05.168Z,9.50
2018-09-06T03:41:05.339Z,9.80
2018-09-06T03:42:05.512Z,9.50
2018-09-06T03:43:05.693Z,10.10
2018-09-06T03:44:05.860Z,10.20
2018-09-06T03:45:06.044Z,10.90
2018-09-06T03:46:06.222Z,10.10
2018-09-06T03:47:06.401Z,10.20
2018-09-06T03:48:07.508Z,10.40
2018-09-06T03:49:07.773Z,10.00
2018-09-06T03:50:07.667Z,10.60
2018-09-06T03:51:10.269Z,10.50
2018-09-06T03:52:09.551Z,10.00
2018-09-06T03:53:11.574Z,10.80
2018-09-06T03:54:09.613Z,9.70
2018-09-06T03:55:07.851Z,10.30
2018-09-06T03:56:08.296Z,10.30
2018-09-06T03:57:08.211Z,10.10
2018-09-06T03:58:08.444Z,10.40
2018-09-06T03:59:08.574Z,9.90
2018-09-06T04:00:08.671Z,9.50
2018-09-06T04:01:08.853Z,10.70
2018-09-06T04:02:09.030Z,10.30
2018-09-06T04:03:09.207Z,10.30
2018-09-06T04:04:09.380Z,10.50
2018-09-06T04:05:09.551Z,10.00
2018-09-06T04:06:09.732Z,10.60
2018-09-06T04:07:09.905Z,10.40
2018-09-06T04:08:10.080Z,10.10
2018-09-06T04:09:10.249Z,10.80
2018-09-06T04:10:10.422Z,9.90
2018-09-06T04:11:10.600Z,10.40
2018-09-06T04:12:10.778Z,10.10
2018-09-06T04:13:13.403Z,10.90
2018-09-06T04:14:11.244Z,10.50
2018-09-06T04:15:11.387Z,10.60
2018-09-06T04:16:11.565Z,10.00
2018-09-06T04:17:11.739Z,10.60
2018-09-06T04:18:11.924Z,11.20
2018-09-06T04:19:12.088Z,10.00
2018-09-06T04:20:12.263Z,10.00
2018-09-06T04:21:12.445Z,9.90
2018-09-06T04:22:12.615Z,10.50
2018-09-06T04:23:12.792Z,10.90
2018-09-06T04:24:13.028Z,9.60
2018-09-06T04:25:13.135Z,10.20
2018-09-06T04:26:13.314Z,10.10
2018-09-06T04:27:13.481Z,10.80
2018-09-06T04:28:13.665Z,11.00
2018-09-06T04:29:13.845Z,10.10
2018-09-06T04:30:14.031Z,10.50
2018-09-06T04:31:14.210Z,10.30
2018-09-06T04:32:14.392Z,10.20
2018-09-06T04:33:14.579Z,10.30
2018-09-06T04:34:14.755Z,10.40
2018-09-06T04:35:14.986Z,10.40
2018-09-06T04:36:15.185Z,10.10
2018-09-06T04:37:15.286Z,10.40
2018-09-06T04:38:15.466Z,10.90
2018-09-06T04:39:15.643Z,10.50
2018-09-06T04:40:15.817Z,10.60
2018-09-06T04:41:15.994Z,10.80
2018-09-06T04:42:16.165Z,10.60
2018-09-06T04:43:16.344Z,10.80
2018-09-06T04:44:16.517Z,10.50
2018-09-06T04:45:16.700Z,10.00
2018-09-06T04:46:16.863Z,10.60
2018-09-06T04:47:17.060Z,10.50
2018-09-06T04:48:17.234Z,10.50
2018-09-06T04:49:17.406Z,11.20
2018-09-06T04:50:17.597Z,9.70
2018-09-06T04:51:17.761Z,9.80
2018-09-06T04:52:17.943Z,10.40
2018-09-06T04:53:18.114Z,10.40
2018-09-06T04:54:18.294Z,10.20
2018-09-06T04:55:18.528Z,10.40
2018-09-06T04:56:18.645Z,10.10
2018-09-06T04:57:18.850Z,11.30
2018-09-06T04:58:19.051Z,10.30
2018-09-06T04:59:19.190Z,11.00
2018-09-06T05:00:19.363Z,10.50
2018-09-06T05:01:19.549Z,10.20
2018-09-06T05:02:19.829Z,11.00
2018-09-06T05:03:19.877Z,10.10
2018-09-06T05:04:20.119Z,9.90
2018-09-06T05:05:20.237Z,10.20
2018-09-06T05:06:20.414Z,10.40
2018-09-06T05:07:20.666Z,10.50
2018-09-06T05:08:20.697Z,10.50
2018-09-06T05:09:20.889Z,10.70
2018-09-06T05:10:21.092Z,11.00
2018-09-06T05:11:21.314Z,10.30
2018-09-06T05:12:22.395Z,12.40
2018-09-06T05:13:23.339Z,11.20
2018-09-06T05:14:23.469Z,9.70
2018-09-06T05:15:22.762Z,10.90
2018-09-06T05:16:24.055Z,10.60
2018-09-06T05:17:23.471Z,10.00
2018-09-06T05:18:25.150Z,12.70
2018-09-06T05:19:24.560Z,13.10
2018-09-06T05:20:23.981Z,10.70
2018-09-06T05:21:25.075Z,11.20
2018-09-06T05:22:25.121Z,11.00
2018-09-06T05:23:23.312Z,11.00
2018-09-06T05:24:23.499Z,11.10
2018-09-06T05:25:23.672Z,10.70
2018-09-06T05:26:23.849Z,10.80
2018-09-06T05:27:24.023Z,11.00
2018-09-06T05:28:24.194Z,10.40
2018-09-06T05:29:24.373Z,11.20
2018-09-06T05:30:24.827Z,10.30
2018-09-06T05:31:24.860Z,9.90
2018-09-06T05:32:25.123Z,11.30
2018-09-06T05:33:25.287Z,10.90
2018-09-06T05:34:25.303Z,11.70
2018-09-06T05:35:25.355Z,11.70
2018-09-06T05:36:25.449Z,11.60
2018-09-06T05:37:25.738Z,10.70
2018-09-06T05:38:25.955Z,12.30
2018-09-06T05:39:25.992Z,11.20
2018-09-06T05:40:26.256Z,10.80
2018-09-06T05:41:26.467Z,11.10
2018-09-06T05:42:26.652Z,11.20
2018-09-06T05:43:26.613Z,11.20
2018-09-06T05:44:26.824Z,11.20
2018-09-06T05:45:27.073Z,11.20
2018-09-06T05:46:27.102Z,10.30
2018-09-06T05:47:27.346Z,11.50
2018-09-06T05:48:27.304Z,10.90
2018-09-06T05:49:27.757Z,11.10
2018-09-06T05:50:27.913Z,11.20
2018-09-06T05:51:28.151Z,10.80
2018-09-06T05:52:28.103Z,10.10
2018-09-06T05:53:28.352Z,11.40
2018-09-06T05:54:28.459Z,11.10
2018-09-06T05:55:28.640Z,11.00
2018-09-06T05:56:28.819Z,10.80
2018-09-06T05:57:29.030Z,11.00
2018-09-06T05:58:29.219Z,10.50
2018-09-06T05:59:29.396Z,10.40
2018-09-06T06:00:29.560Z,12.20
2018-09-06T06:01:29.734Z,11.00
2018-09-06T06:02:29.906Z,11.40
2018-09-06T06:03:30.080Z,11.10
2018-09-06T06:04:30.252Z,11.10
2018-09-06T06:05:30.436Z,12.00
2018-09-06T06:06:30.622Z,11.90
2018-09-06T06:07:31.027Z,11.30
2018-09-06T06:08:30.958Z,10.30
2018-09-06T06:09:31.126Z,10.50
2018-09-06T06:10:31.304Z,10.30
2018-09-06T06:11:31.487Z,10.20
2018-09-06T06:12:31.665Z,9.60
2018-09-06T06:13:31.849Z,10.70
2018-09-06T06:14:32.034Z,9.80
2018-09-06T06:15:32.213Z,10.20
2018-09-06T06:16:32.389Z,9.60
2018-09-06T06:17:32.586Z,10.00
2018-09-06T06:18:32.776Z,10.10
2018-09-06T06:19:32.940Z,9.60
2018-09-06T06:20:33.129Z,9.50
2018-09-06T06:21:33.301Z,9.40
2018-09-06T06:22:33.471Z,9.40
2018-09-06T06:23:33.661Z,9.40
2018-09-06T06:24:33.844Z,9.30
2018-09-06T06:25:34.027Z,9.10
2018-09-06T06:26:34.230Z,9.50
2018-09-06T06:27:34.391Z,9.40
2018-09-06T06:28:34.574Z,9.10
2018-09-06T06:29:34.756Z,9.50
2018-09-06T06:30:34.937Z,9.60
2018-09-06T06:31:35.238Z,9.90
2018-09-06T06:32:35.313Z,9.40
2018-09-06T06:33:35.501Z,8.90
2018-09-06T06:34:35.683Z,8.80
2018-09-06T06:35:35.854Z,9.40
2018-09-06T06:36:36.029Z,8.60
2018-09-06T06:37:36.232Z,9.20
2018-09-06T06:38:36.407Z,9.10
2018-09-06T06:39:36.577Z,9.80
2018-09-06T06:40:36.756Z,7.90
2018-09-06T06:41:36.935Z,8.40
2018-09-06T06:42:37.176Z,8.10
2018-09-06T06:43:37.384Z,10.20
2018-09-06T06:44:37.566Z,9.10
2018-09-06T06:45:37.743Z,8.50
2018-09-06T06:46:37.918Z,8.60
2018-09-06T06:47:38.123Z,8.80
2018-09-06T06:48:38.288Z,9.40
2018-09-06T06:49:38.489Z,9.00
2018-09-06T06:50:38.904Z,8.20
2018-09-06T06:51:39.473Z,8.40
2018-09-06T06:52:39.105Z,8.20
2018-09-06T06:53:39.360Z,8.10
2018-09-06T06:54:39.859Z,8.00
2018-09-06T06:55:39.753Z,8.30
2018-09-06T06:56:39.709Z,8.80
2018-09-06T06:57:39.927Z,8.30
2018-09-06T06:58:40.159Z,7.80
2018-09-06T06:59:40.305Z,8.40
2018-09-06T07:00:40.480Z,8.90
2018-09-06T07:01:40.665Z,8.70
2018-09-06T07:02:40.842Z,9.00
2018-09-06T07:03:41.065Z,7.80
2018-09-06T07:04:41.293Z,8.00
2018-09-06T07:05:41.400Z,9.00
2018-09-06T07:06:41.582Z,8.20
2018-09-06T07:07:41.761Z,8.20
2018-09-06T07:08:42.052Z,9.00
2018-09-06T07:09:42.114Z,8.90
2018-09-06T07:10:42.293Z,9.30
2018-09-06T07:11:42.526Z,8.00
2018-09-06T07:12:42.689Z,10.20
2018-09-06T07:13:42.880Z,8.30
2018-09-06T07:14:43.115Z,8.10
2018-09-06T07:15:43.344Z,8.70
2018-09-06T07:16:43.456Z,10.10
2018-09-06T07:17:43.890Z,9.00
2018-09-06T07:18:43.964Z,9.10
2018-09-06T07:19:44.106Z,9.40
2018-09-06T07:20:44.281Z,9.30
2018-09-06T07:21:44.480Z,8.70
2018-09-06T07:22:44.651Z,10.00
2018-09-06T07:23:44.836Z,8.50
2018-09-06T07:24:45.053Z,10.50
2018-09-06T07:25:45.242Z,7.90
2018-09-06T07:26:45.999Z,8.80
2018-09-06T07:27:45.601Z,8.90
2018-09-06T07:28:45.827Z,8.50
2018-09-06T07:29:46.254Z,9.20
2018-09-06T07:30:46.662Z,8.90
2018-09-06T07:31:46.345Z,9.40
2018-09-06T07:32:46.450Z,9.60
2018-09-06T07:33:46.624Z,8.30
2018-09-06T07:34:46.813Z,8.60
2018-09-06T07:35:47.005Z,9.00
2018-09-06T07:36:47.174Z,8.40
2018-09-06T07:37:47.394Z,8.40
2018-09-06T07:38:47.571Z,10.70
2018-09-06T07:39:47.753Z,8.60
2018-09-06T07:40:47.966Z,9.30
2018-09-06T07:41:48.121Z,9.00
2018-09-06T07:42:48.304Z,8.70
2018-09-06T07:43:48.480Z,8.80
2018-09-06T07:44:48.662Z,8.70
2018-09-06T07:45:48.841Z,9.60
2018-09-06T07:46:49.063Z,9.30
2018-09-06T07:47:49.201Z,9.80
2018-09-06T07:48:49.385Z,8.20
2018-09-06T07:49:49.588Z,9.60
2018-09-06T07:50:49.771Z,8.70
2018-09-06T07:51:49.969Z,9.60
2018-09-06T07:52:50.827Z,9.40
2018-09-06T07:53:50.264Z,12.30
2018-09-06T07:54:50.468Z,8.70
2018-09-06T07:55:50.655Z,10.20
2018-09-06T07:56:50.853Z,11.20
2018-09-06T07:57:51.027Z,11.00
2018-09-06T07:58:51.208Z,8.80
2018-09-06T07:59:51.413Z,9.60
2018-09-06T08:00:51.595Z,9.10
2018-09-06T08:01:51.914Z,9.80
2018-09-06T08:02:51.949Z,10.60
2018-09-06T08:03:52.150Z,9.10
2018-09-06T08:04:52.333Z,9.50
2018-09-06T08:05:52.532Z,10.10
2018-09-06T08:06:52.718Z,9.40
2018-09-06T08:07:54.591Z,9.20
2018-09-06T08:08:53.095Z,8.70
2018-09-06T08:09:53.221Z,8.30
2018-09-06T08:10:53.424Z,8.60
2018-09-06T08:11:53.652Z,7.90
2018-09-06T08:12:53.824Z,9.80
2018-09-06T08:13:54.014Z,8.90
2018-09-06T08:14:54.192Z,8.00
2018-09-06T08:15:54.378Z,9.10
2018-09-06T08:16:54.558Z,9.00
2018-09-06T08:17:54.742Z,7.20
2018-09-06T08:18:54.944Z,8.80
2018-09-06T08:19:55.111Z,7.50
2018-09-06T08:20:55.297Z,8.10
2018-09-06T08:21:55.484Z,8.20
2018-09-06T08:22:55.667Z,7.90
2018-09-06T08:23:55.850Z,8.20
2018-09-06T08:24:56.029Z,8.50
2018-09-06T08:25:56.248Z,8.60
2018-09-06T08:26:56.417Z,9.00
2018-09-06T08:27:56.705Z,9.20
2018-09-06T08:28:56.819Z,8.30
2018-09-06T08:29:57.020Z,7.80
2018-09-06T08:30:57.391Z,7.20
2018-09-06T08:31:57.412Z,8.90
2018-09-06T08:32:57.619Z,9.40
2018-09-06T08:33:57.812Z,7.30
2018-09-06T08:34:58.079Z,8.70
2018-09-06T08:35:58.137Z,8.30
2018-09-06T08:36:58.341Z,9.50
2018-09-06T08:37:58.822Z,9.00
2018-09-06T08:38:58.662Z,9.00
2018-09-06T08:39:58.837Z,7.20
2018-09-06T08:40:59.016Z,7.70
2018-09-06T08:41:59.489Z,9.40
2018-09-06T08:42:59.432Z,7.90
2018-09-06T08:43:59.614Z,7.90
2018-09-06T08:44:59.820Z,8.10
2018-09-06T08:46:00.027Z,8.30
2018-09-06T08:47:00.971Z,9.20
2018-09-06T08:48:00.503Z,8.20
2018-09-06T08:49:00.571Z,8.60
2018-09-06T08:50:00.753Z,10.80
2018-09-06T08:51:00.941Z,8.50
2018-09-06T08:52:01.158Z,10.40
2018-09-06T08:53:01.335Z,9.00
2018-09-06T08:54:01.501Z,8.10
2018-09-06T08:55:01.687Z,9.30
2018-09-06T08:56:01.871Z,9.40
2018-09-06T08:57:02.081Z,8.60
2018-09-06T08:58:02.285Z,8.70
2018-09-06T08:59:02.532Z,9.20
2018-09-06T09:00:02.683Z,9.10
2018-09-06T09:01:02.878Z,9.40
2018-09-06T09:02:03.072Z,9.50
2018-09-06T09:03:03.286Z,10.10
2018-09-06T09:04:03.431Z,9.10
2018-09-06T09:05:03.606Z,9.60
2018-09-06T09:06:03.859Z,9.70
2018-09-06T09:07:05.442Z,9.10
2018-09-06T09:08:05.434Z,9.60
2018-09-06T09:09:04.369Z,9.00
2018-09-06T09:10:04.548Z,12.70
2018-09-06T09:11:04.732Z,9.50
2018-09-06T09:12:04.924Z,8.90
2018-09-06T09:13:05.123Z,9.40
2018-09-06T09:14:05.298Z,9.40
2018-09-06T09:15:05.489Z,10.60
2018-09-06T09:16:05.712Z,9.60
2018-09-06T09:17:05.899Z,9.60
2018-09-06T09:18:06.053Z,10.20
2018-09-06T09:19:06.249Z,8.80
2018-09-06T09:20:06.443Z,9.60
2018-09-06T09:21:06.622Z,10.10
2018-09-06T09:22:06.856Z,8.80
2018-09-06T09:23:07.012Z,9.20
2018-09-06T09:24:07.288Z,9.20
2018-09-06T09:25:07.434Z,9.20
2018-09-06T09:26:07.639Z,9.40
2018-09-06T09:27:07.815Z,9.40
2018-09-06T09:28:08.008Z,9.30
2018-09-06T09:29:08.215Z,9.80
2018-09-06T09:30:08.408Z,8.70
2018-09-06T09:31:08.602Z,9.40
2018-09-06T09:32:08.787Z,9.40
2018-09-06T09:33:09.005Z,9.10
2018-09-06T09:34:09.173Z,9.00
2018-09-06T09:35:09.412Z,9.10
2018-09-06T09:36:09.552Z,9.00
2018-09-06T09:37:10.534Z,8.90
2018-09-06T09:38:09.937Z,8.40
2018-09-06T09:39:10.118Z,8.90
2018-09-06T09:40:10.303Z,8.90
2018-09-06T09:41:10.489Z,8.90
2018-09-06T09:42:10.686Z,8.30
2018-09-06T09:43:10.915Z,7.60
2018-09-06T09:44:11.108Z,8.20
2018-09-06T09:45:11.299Z,8.40
2018-09-06T09:47:43.632Z,8.10
2018-09-06T09:48:43.814Z,9.30
2018-09-06T09:49:44.000Z,8.20
2018-09-06T09:51:05.184Z,8.80
2018-09-06T09:51:44.351Z,9.80
2018-09-06T09:52:44.539Z,9.80
2018-09-06T09:53:44.736Z,9.30
2018-09-06T09:54:44.926Z,8.50
2018-09-06T09:55:45.113Z,8.70
2018-09-06T09:56:45.302Z,8.60
2018-09-06T09:57:45.597Z,9.10
2018-09-06T09:58:45.859Z,8.80
2018-09-06T09:59:46.538Z,7.90
2018-09-06T10:00:46.124Z,8.50
2018-09-06T10:01:46.307Z,8.30
2018-09-06T10:02:46.497Z,9.30
2018-09-06T10:03:46.742Z,8.50
2018-09-06T10:04:46.882Z,8.40
2018-09-06T10:05:47.357Z,9.00
2018-09-06T10:06:47.294Z,8.60
2018-09-06T10:07:47.647Z,8.60
2018-09-06T10:08:47.680Z,8.30
2018-09-06T10:09:47.881Z,9.40
2018-09-06T10:10:48.076Z,8.30
2018-09-06T10:11:48.270Z,8.80
2018-09-06T10:12:48.500Z,8.60
2018-09-06T10:13:48.734Z,8.80
2018-09-06T10:14:48.904Z,8.50
2018-09-06T10:15:49.094Z,8.40
2018-09-06T10:16:49.292Z,8.30
2018-09-06T10:17:49.479Z,7.80
2018-09-06T10:18:49.663Z,8.30
2018-09-06T10:19:49.853Z,8.00
2018-09-06T10:20:50.096Z,9.20
2018-09-06T10:21:50.227Z,8.10
2018-09-06T10:22:50.444Z,8.10
2018-09-06T10:23:50.640Z,8.60
2018-09-06T10:24:50.830Z,8.10
2018-09-06T10:25:51.051Z,8.30
2018-09-06T10:26:51.236Z,8.30
2018-09-06T10:27:51.425Z,8.80
2018-09-06T10:28:51.628Z,8.50
2018-09-06T10:29:51.807Z,8.50
2018-09-06T10:30:51.994Z,8.60
2018-09-06T10:31:52.184Z,9.00
2018-09-06T10:32:52.372Z,8.50
2018-09-06T10:33:52.560Z,8.60
2018-09-06T10:34:52.754Z,9.40
2018-09-06T10:35:52.948Z,9.00
2018-09-06T10:36:53.250Z,8.60
2018-09-06T10:37:53.372Z,9.90
2018-09-06T10:38:53.556Z,9.20
2018-09-06T10:39:53.754Z,8.60
2018-09-06T10:40:53.935Z,8.40
2018-09-06T10:41:54.124Z,8.20
2018-09-06T10:42:54.309Z,9.30
2018-09-06T10:43:54.530Z,9.70
2018-09-06T10:44:54.727Z,9.20
2018-09-06T10:45:54.922Z,8.60
2018-09-06T10:46:55.097Z,10.40
2018-09-06T10:47:55.331Z,9.20
2018-09-06T10:48:55.473Z,8.70
2018-09-06T10:49:55.656Z,8.90
2018-09-06T10:50:55.843Z,9.70
2018-09-06T10:51:56.042Z,8.20
2018-09-06T10:52:56.234Z,9.60
2018-09-06T10:53:56.419Z,8.20
2018-09-06T10:54:56.608Z,8.90
2018-09-06T10:55:56.801Z,9.20
2018-09-06T10:56:56.988Z,9.00
2018-09-06T10:57:57.171Z,8.90
2018-09-06T10:58:57.357Z,8.60
2018-09-06T10:59:57.535Z,8.50
2018-09-06T11:00:57.723Z,9.40
2018-09-06T11:01:57.911Z,9.70
2018-09-06T11:02:58.097Z,8.60
2018-09-06T11:03:58.284Z,9.00
2018-09-06T11:04:58.482Z,9.10
2018-09-06T11:05:58.674Z,8.70
2018-09-06T11:06:58.865Z,8.80
2018-09-06T11:07:59.096Z,9.30
2018-09-06T11:08:59.245Z,9.20
2018-09-06T11:10:00.993Z,9.50
2018-09-06T11:10:59.881Z,9.20
2018-09-06T11:11:59.751Z,9.70
2018-09-06T11:13:00.049Z,9.00
2018-09-06T11:14:00.141Z,9.20
2018-09-06T11:15:00.992Z,9.50
2018-09-06T11:16:00.630Z,9.80
2018-09-06T11:17:01.455Z,9.60
2018-09-06T11:18:01.532Z,9.60
2018-09-06T11:19:01.032Z,9.50
2018-09-06T11:20:03.055Z,8.80
2018-09-06T11:21:02.367Z,9.80
2018-09-06T11:22:01.859Z,9.50
2018-09-06T11:23:01.781Z,9.40
2018-09-06T11:24:02.458Z,9.30
2018-09-06T11:25:02.121Z,9.60
2018-09-06T11:26:02.350Z,9.40
2018-09-06T11:27:03.316Z,9.20
2018-09-06T11:28:02.673Z,10.90
2018-09-06T11:29:02.856Z,9.50
2018-09-06T11:30:08.573Z,9.00
2018-09-06T11:31:03.382Z,9.60
2018-09-06T11:32:03.496Z,9.30
2018-09-06T11:33:03.693Z,9.40
2018-09-06T11:34:04.571Z,9.60
2018-09-06T11:35:06.335Z,9.70
2018-09-06T11:36:04.676Z,9.40
2018-09-06T11:37:05.880Z,10.10
2018-09-06T11:38:06.115Z,9.00
2018-09-06T11:39:05.475Z,9.70
2018-09-06T11:40:06.060Z,9.70
2018-09-06T11:41:06.500Z,9.50
2018-09-06T11:42:06.012Z,10.10
2018-09-06T11:43:06.337Z,9.70
2018-09-06T11:44:05.762Z,8.90
2018-09-06T11:45:06.558Z,9.30
2018-09-06T11:46:07.127Z,9.40
2018-09-06T11:47:06.150Z,10.30
2018-09-06T11:48:06.261Z,9.60
2018-09-06T11:49:06.456Z,9.60
2018-09-06T11:50:06.634Z,9.20
2018-09-06T11:51:06.823Z,9.40
2018-09-06T11:52:07.141Z,9.20
2018-09-06T11:53:07.392Z,9.80
2018-09-06T11:54:07.714Z,9.20
2018-09-06T11:55:07.591Z,10.80
2018-09-06T11:56:08.316Z,10.10
2018-09-06T11:57:08.170Z,10.70
2018-09-06T11:58:08.254Z,9.40
2018-09-06T11:59:08.259Z,9.80
2018-09-06T12:00:08.443Z,10.90
2018-09-06T12:01:08.648Z,10.80
2018-09-06T12:02:08.852Z,11.90
2018-09-06T12:03:09.025Z,12.30
2018-09-06T12:04:09.207Z,11.80
2018-09-06T12:05:09.403Z,10.90
2018-09-06T12:06:09.625Z,11.80
2018-09-06T12:07:09.789Z,11.70
2018-09-06T12:08:10.008Z,10.00
2018-09-06T12:09:10.192Z,9.00
2018-09-06T12:10:10.397Z,8.30
2018-09-06T12:11:10.622Z,9.70
2018-09-06T12:12:10.828Z,9.20
2018-09-06T12:13:11.091Z,10.20
2018-09-06T12:14:11.243Z,12.20
2018-09-06T12:15:11.760Z,8.70
2018-09-06T12:16:13.685Z,10.60
2018-09-06T12:17:11.682Z,8.20
2018-09-06T12:18:12.827Z,11.00
2018-09-06T12:19:13.491Z,9.10
2018-09-06T12:20:13.739Z,7.50
2018-09-06T12:21:15.446Z,8.50
2018-09-06T12:22:12.667Z,8.20
2018-09-06T12:23:15.340Z,8.30
2018-09-06T12:24:15.897Z,10.50
2018-09-06T12:25:14.058Z,9.50
2018-09-06T12:26:16.349Z,10.30
2018-09-06T12:27:15.202Z,10.60
2018-09-06T12:28:15.105Z,9.60
2018-09-06T12:29:14.302Z,11.30
2018-09-06T12:30:15.025Z,11.70
2018-09-06T12:31:16.420Z,10.60
2018-09-06T12:32:15.409Z,10.00
2018-09-06T12:33:16.334Z,11.70
2018-09-06T12:34:16.008Z,10.80
2018-09-06T12:35:14.782Z,10.50
2018-09-06T12:36:14.960Z,13.00
2018-09-06T12:37:15.180Z,12.50
2018-09-06T12:38:15.375Z,11.60
2018-09-06T12:39:17.014Z,12.60
2018-09-06T12:40:15.662Z,12.20
2018-09-06T12:41:15.841Z,12.30
2018-09-06T12:42:16.026Z,10.20
2018-09-06T12:43:16.205Z,10.30
2018-09-06T12:44:16.387Z,11.10
2018-09-06T12:45:16.562Z,10.40
2018-09-06T12:46:16.769Z,10.60
2018-09-06T12:47:16.980Z,9.30
2018-09-06T12:48:17.136Z,12.10
2018-09-06T12:49:17.332Z,12.60
2018-09-06T12:50:17.511Z,9.20
2018-09-06T12:51:17.698Z,8.30
2018-09-06T12:52:17.900Z,11.10
2018-09-06T12:53:18.070Z,9.40
2018-09-06T12:54:18.677Z,10.30
2018-09-06T12:55:18.847Z,9.90
2018-09-06T12:56:18.856Z,9.50
2018-09-06T12:57:18.839Z,11.10
2018-09-06T12:58:19.022Z,11.20
2018-09-06T12:59:19.193Z,11.10
2018-09-06T13:00:19.371Z,12.50
2018-09-06T13:01:19.542Z,11.40
2018-09-06T13:02:19.720Z,10.20
2018-09-06T13:03:19.902Z,9.50
2018-09-06T13:04:20.080Z,10.00
2018-09-06T13:05:20.257Z,9.60
2018-09-06T13:06:20.460Z,9.90
2018-09-06T13:07:20.648Z,10.60
2018-09-06T13:08:20.847Z,9.00
2018-09-06T13:09:21.018Z,10.40
2018-09-06T13:10:21.221Z,9.70
2018-09-06T13:11:21.393Z,10.30
2018-09-06T13:12:21.576Z,11.10
2018-09-06T13:13:21.765Z,9.00